F/V Oceanis — FHLH — position and weather

sailwx.info

Track history (hours):
 
Tides and Currents Weather Stations Pressure Air Temp Water Temp Dewpoint Dewpoint Depression Visibility Wind Speed Wind Dir Waves Ship Positions

F/V Oceanis

Last reported at 2014-Oct-20 03:33 UTC. Time now 2014-Oct-20 04:25 UTC.
Position N 45°25' W 001°33'.

Length 16 m.

Type: Other ship. MMSI: 228385000.

Date/timePositionNaut miles runAvg speedWind from/ knotsBaromVisibWave heightAir tempDewpointWater temp
2014-Oct-20 03:33N 45°25' W 001°33'0 0.3
2014-Oct-20 02:33N 45°25' W 001°33'1 0.5
2014-Oct-19 23:33N 45°26' W 001°33'0 0.2
2014-Oct-19 22:28N 45°26' W 001°33'5 0.2
2014-Oct-19 00:32N 45°31' W 001°37'0 0.0
2014-Oct-18 23:33N 45°31' W 001°37'0 0.0
2014-Oct-18 22:33N 45°31' W 001°37'0 0.0
2014-Oct-18 21:33N 45°31' W 001°37'0 0.0
2014-Oct-18 20:20N 45°31' W 001°37'  
2014-Oct-16 08:07N 45°30' W 001°37'31 2.9
2014-Oct-15 21:27N 44°60' W 001°26'12 6.5
2014-Oct-15 19:33N 44°48' W 001°22'7 6.6
2014-Oct-15 18:33N 44°41' W 001°20'6 6.5
2014-Oct-15 17:33N 44°35' W 001°19'5 4.8
2014-Oct-15 16:34N 44°38' W 001°14'4 4.0
2014-Oct-15 15:33N 44°39' W 001°09'0 0.0
2014-Oct-15 14:34N 44°39' W 001°09'0 0.0
2014-Oct-15 13:32N 44°39' W 001°09'0 0.0
2014-Oct-15 12:33N 44°39' W 001°09'0 0.0
2014-Oct-15 11:33N 44°39' W 001°09'0 0.0
2014-Oct-15 10:33N 44°39' W 001°09'0 0.0
2014-Oct-15 08:05N 44°39' W 001°09'0 0.0
2014-Oct-15 07:34N 44°39' W 001°09'0 0.0
2014-Oct-15 06:34N 44°39' W 001°09'0 0.0
2014-Oct-15 05:34N 44°39' W 001°09'0 0.0
2014-Oct-15 04:33N 44°39' W 001°09'0 0.0
2014-Oct-15 03:34N 44°39' W 001°09'0 0.0
2014-Oct-15 02:34N 44°39' W 001°09'0 0.0
2014-Oct-15 01:34N 44°39' W 001°09'0 0.0
2014-Oct-15 00:34N 44°39' W 001°09'0 0.0
2014-Oct-14 23:34N 44°39' W 001°09'0 0.0
2014-Oct-14 22:33N 44°39' W 001°09'0 0.0
2014-Oct-14 21:33N 44°39' W 001°09'0 0.0
2014-Oct-14 20:33N 44°39' W 001°09'0 0.0
2014-Oct-14 19:33N 44°39' W 001°09'0 0.0
2014-Oct-14 18:33N 44°39' W 001°09'0 0.0
2014-Oct-14 17:33N 44°39' W 001°09'0 0.0
2014-Oct-14 16:33N 44°39' W 001°09'0 0.0
2014-Oct-14 15:33N 44°39' W 001°09'0 0.0
2014-Oct-14 14:33N 44°39' W 001°09'0 0.0
2014-Oct-14 13:33N 44°39' W 001°09'0 0.0
2014-Oct-14 12:33N 44°39' W 001°09'0 0.0
2014-Oct-14 11:33N 44°39' W 001°09'0 0.0
2014-Oct-14 10:33N 44°39' W 001°09'0 0.0
2014-Oct-14 09:34N 44°39' W 001°09'0 0.0
2014-Oct-14 08:33N 44°39' W 001°09'0 0.0
2014-Oct-14 07:34N 44°39' W 001°09'0 0.0
2014-Oct-14 06:33N 44°39' W 001°09'0 0.0
2014-Oct-14 05:33N 44°39' W 001°09'0 0.0
2014-Oct-14 04:33N 44°39' W 001°09'0 0.0
2014-Oct-14 03:34N 44°39' W 001°09'0 0.0
2014-Oct-14 02:33N 44°39' W 001°09'0 0.0
2014-Oct-14 01:34N 44°39' W 001°09'0 0.0
2014-Oct-14 00:33N 44°39' W 001°09'0 0.0
2014-Oct-13 23:33N 44°39' W 001°09'0 0.0
2014-Oct-13 22:33N 44°39' W 001°09'0 0.0
2014-Oct-13 21:33N 44°39' W 001°09'0 0.0
2014-Oct-13 20:34N 44°39' W 001°09'0 0.0
2014-Oct-13 19:33N 44°39' W 001°09'0 0.0
2014-Oct-13 18:34N 44°39' W 001°09'0 0.0
2014-Oct-13 17:34N 44°39' W 001°09'0 0.1
2014-Oct-13 16:34N 44°39' W 001°09'0 0.0
2014-Oct-13 15:33N 44°39' W 001°09'0 0.0
2014-Oct-13 14:34N 44°39' W 001°09'0 0.0
2014-Oct-13 13:34N 44°39' W 001°09'0 0.0
2014-Oct-13 12:33N 44°39' W 001°09'0 0.0
2014-Oct-13 11:33N 44°39' W 001°09'0 0.0
2014-Oct-13 10:34N 44°39' W 001°09'0 0.0
2014-Oct-13 09:34N 44°39' W 001°09'0 0.0
2014-Oct-13 08:34N 44°39' W 001°09'0 0.0
2014-Oct-13 07:33N 44°39' W 001°09'0 0.0
2014-Oct-13 06:34N 44°39' W 001°09'0 0.0
2014-Oct-13 05:33N 44°39' W 001°09'0 0.0
2014-Oct-13 04:34N 44°39' W 001°09'0 0.0
2014-Oct-13 03:34N 44°39' W 001°09'0 0.0
2014-Oct-13 02:33N 44°39' W 001°09'0 0.0
2014-Oct-13 01:34N 44°39' W 001°09'0 0.0
2014-Oct-13 00:33N 44°39' W 001°09'0 0.0
2014-Oct-12 23:33N 44°39' W 001°09'0 0.0
2014-Oct-12 22:34N 44°39' W 001°09'0 0.0
2014-Oct-12 21:34N 44°39' W 001°09'0 0.0
2014-Oct-12 20:34N 44°39' W 001°09'0 0.0
2014-Oct-12 19:33N 44°39' W 001°09'0 0.0
2014-Oct-12 18:33N 44°39' W 001°09'5 4.9
2014-Oct-12 17:34N 44°37' W 001°14'4 4.0
2014-Oct-12 16:34N 44°38' W 001°20'7 7.2
2014-Oct-12 15:34N 44°45' W 001°23'3 3.5
2014-Oct-12 14:34N 44°48' W 001°24'0 0.3
2014-Oct-12 13:34N 44°48' W 001°24'2 1.9
2014-Oct-12 12:33N 44°46' W 001°24'1 0.8
2014-Oct-12 11:34N 44°47' W 001°24'1 0.6
2014-Oct-12 10:34N 44°48' W 001°25'0 0.3
2014-Oct-12 09:33N 44°48' W 001°25'2 2.4
2014-Oct-12 08:33N 44°50' W 001°25'4 3.8
2014-Oct-12 07:34N 44°47' W 001°28'7 6.5
2014-Oct-12 06:28N 44°42' W 001°36'4 4.7
2014-Oct-12 05:33N 44°40' W 001°40'1 1.0
2014-Oct-12 04:33N 44°39' W 001°41'0 0.3
2014-Oct-12 03:20N 44°39' W 001°41'1 0.7
2014-Oct-12 02:32N 44°38' W 001°41'0 0.5
2014-Oct-12 01:33N 44°38' W 001°42'0 0.0
2014-Oct-12 00:33N 44°38' W 001°42'0 0.0
2014-Oct-11 23:33N 44°38' W 001°42'0 0.0
2014-Oct-11 22:34N 44°38' W 001°42'0 0.0
2014-Oct-11 21:33N 44°38' W 001°42'0 0.0
2014-Oct-11 20:33N 44°38' W 001°42'0 0.0
2014-Oct-11 19:33N 44°38' W 001°42'0 0.0
2014-Oct-11 18:33N 44°38' W 001°42'0 0.0
2014-Oct-11 17:34N 44°38' W 001°42'1 1.1
2014-Oct-11 16:26N 44°38' W 001°43'1 0.7
2014-Oct-11 15:32N 44°39' W 001°43'1 1.4
2014-Oct-11 14:34N 44°39' W 001°41'2 1.0
2014-Oct-11 12:13N 44°39' W 001°45'3 4.1
2014-Oct-11 11:34N 44°38' W 001°41'15 7.2
2014-Oct-11 09:27N 44°48' W 001°25'1 1.4
2014-Oct-11 08:33N 44°50' W 001°25'3 3.2
2014-Oct-11 07:34N 44°48' W 001°28'7 6.8
2014-Oct-11 06:32N 44°48' W 001°38'1 1.0
2014-Oct-11 05:32N 44°48' W 001°37'1 0.6
2014-Oct-11 04:32N 44°48' W 001°36'0 0.0
2014-Oct-10 22:11N 44°48' W 001°36'0 0.1
2014-Oct-10 21:32N 44°48' W 001°36'0 0.0
2014-Oct-10 20:16N 44°48' W 001°36'0 0.1
2014-Oct-10 19:25N 44°48' W 001°36'0 0.2
2014-Oct-10 18:24N 44°48' W 001°36'7 7.1
2014-Oct-10 17:28N 44°48' W 001°27'2 2.3
2014-Oct-10 16:34N 44°50' W 001°25'2 2.4
2014-Oct-10 15:33N 44°47' W 001°25'0 0.4
2014-Oct-10 14:33N 44°47' W 001°24'0 0.3
2014-Oct-10 13:34N 44°48' W 001°24'2 1.5
2014-Oct-10 12:33N 44°46' W 001°25'1 1.1
2014-Oct-10 11:34N 44°45' W 001°24'2 2.4
2014-Oct-10 10:33N 44°48' W 001°24'3 2.6
2014-Oct-10 09:33N 44°45' W 001°24'0 0.2
2014-Oct-10 08:33N 44°45' W 001°24'3 2.6
2014-Oct-10 07:33N 44°48' W 001°24'3 2.7
2014-Oct-10 06:34N 44°45' W 001°24'0 0.1
2014-Oct-10 05:34N 44°45' W 001°25'3 2.6
2014-Oct-10 04:33N 44°48' W 001°24'0 0.2
2014-Oct-10 03:33N 44°48' W 001°25'  
Track history (hours):
 
Tides and Currents Weather Stations Pressure Air Temp Water Temp Dewpoint Dewpoint Depression Visibility Wind Speed Wind Dir Waves Ship Positions

F/V Oceanis

Last reported at 2014-Oct-20 03:33 UTC. Time now 2014-Oct-20 04:25 UTC.
Position N 45°25' W 001°33'.

Length 16 m.

Type: Other ship. MMSI: 228385000.

Date/timePositionNaut miles runAvg speedWind from/ knotsBaromVisibWave heightAir tempDewpointWater temp
2014-Oct-20 03:33N 45°25' W 001°33'0 0.3
2014-Oct-20 02:33N 45°25' W 001°33'1 0.5
2014-Oct-19 23:33N 45°26' W 001°33'0 0.2
2014-Oct-19 22:28N 45°26' W 001°33'5 0.2
2014-Oct-19 00:32N 45°31' W 001°37'0 0.0
2014-Oct-18 23:33N 45°31' W 001°37'0 0.0
2014-Oct-18 22:33N 45°31' W 001°37'0 0.0
2014-Oct-18 21:33N 45°31' W 001°37'0 0.0
2014-Oct-18 20:20N 45°31' W 001°37'  
2014-Oct-16 08:07N 45°30' W 001°37'31 2.9
2014-Oct-15 21:27N 44°60' W 001°26'12 6.5
2014-Oct-15 19:33N 44°48' W 001°22'7 6.6
2014-Oct-15 18:33N 44°41' W 001°20'6 6.5
2014-Oct-15 17:33N 44°35' W 001°19'5 4.8
2014-Oct-15 16:34N 44°38' W 001°14'4 4.0
2014-Oct-15 15:33N 44°39' W 001°09'0 0.0
2014-Oct-15 14:34N 44°39' W 001°09'0 0.0
2014-Oct-15 13:32N 44°39' W 001°09'0 0.0
2014-Oct-15 12:33N 44°39' W 001°09'0 0.0
2014-Oct-15 11:33N 44°39' W 001°09'0 0.0
2014-Oct-15 10:33N 44°39' W 001°09'0 0.0
2014-Oct-15 08:05N 44°39' W 001°09'0 0.0
2014-Oct-15 07:34N 44°39' W 001°09'0 0.0
2014-Oct-15 06:34N 44°39' W 001°09'0 0.0
2014-Oct-15 05:34N 44°39' W 001°09'0 0.0
2014-Oct-15 04:33N 44°39' W 001°09'0 0.0
2014-Oct-15 03:34N 44°39' W 001°09'0 0.0
2014-Oct-15 02:34N 44°39' W 001°09'0 0.0
2014-Oct-15 01:34N 44°39' W 001°09'0 0.0
2014-Oct-15 00:34N 44°39' W 001°09'0 0.0
2014-Oct-14 23:34N 44°39' W 001°09'0 0.0
2014-Oct-14 22:33N 44°39' W 001°09'0 0.0
2014-Oct-14 21:33N 44°39' W 001°09'0 0.0
2014-Oct-14 20:33N 44°39' W 001°09'0 0.0
2014-Oct-14 19:33N 44°39' W 001°09'0 0.0
2014-Oct-14 18:33N 44°39' W 001°09'0 0.0
2014-Oct-14 17:33N 44°39' W 001°09'0 0.0
2014-Oct-14 16:33N 44°39' W 001°09'0 0.0
2014-Oct-14 15:33N 44°39' W 001°09'0 0.0
2014-Oct-14 14:33N 44°39' W 001°09'0 0.0
2014-Oct-14 13:33N 44°39' W 001°09'0 0.0
2014-Oct-14 12:33N 44°39' W 001°09'0 0.0
2014-Oct-14 11:33N 44°39' W 001°09'0 0.0
2014-Oct-14 10:33N 44°39' W 001°09'0 0.0
2014-Oct-14 09:34N 44°39' W 001°09'0 0.0
2014-Oct-14 08:33N 44°39' W 001°09'0 0.0
2014-Oct-14 07:34N 44°39' W 001°09'0 0.0
2014-Oct-14 06:33N 44°39' W 001°09'0 0.0
2014-Oct-14 05:33N 44°39' W 001°09'0 0.0
2014-Oct-14 04:33N 44°39' W 001°09'0 0.0
2014-Oct-14 03:34N 44°39' W 001°09'0 0.0
2014-Oct-14 02:33N 44°39' W 001°09'0 0.0
2014-Oct-14 01:34N 44°39' W 001°09'0 0.0
2014-Oct-14 00:33N 44°39' W 001°09'0 0.0
2014-Oct-13 23:33N 44°39' W 001°09'0 0.0
2014-Oct-13 22:33N 44°39' W 001°09'0 0.0
2014-Oct-13 21:33N 44°39' W 001°09'0 0.0
2014-Oct-13 20:34N 44°39' W 001°09'0 0.0
2014-Oct-13 19:33N 44°39' W 001°09'0 0.0
2014-Oct-13 18:34N 44°39' W 001°09'0 0.0
2014-Oct-13 17:34N 44°39' W 001°09'0 0.1
2014-Oct-13 16:34N 44°39' W 001°09'0 0.0
2014-Oct-13 15:33N 44°39' W 001°09'0 0.0
2014-Oct-13 14:34N 44°39' W 001°09'0 0.0
2014-Oct-13 13:34N 44°39' W 001°09'0 0.0
2014-Oct-13 12:33N 44°39' W 001°09'0 0.0
2014-Oct-13 11:33N 44°39' W 001°09'0 0.0
2014-Oct-13 10:34N 44°39' W 001°09'0 0.0
2014-Oct-13 09:34N 44°39' W 001°09'0 0.0
2014-Oct-13 08:34N 44°39' W 001°09'0 0.0
2014-Oct-13 07:33N 44°39' W 001°09'0 0.0
2014-Oct-13 06:34N 44°39' W 001°09'0 0.0
2014-Oct-13 05:33N 44°39' W 001°09'0 0.0
2014-Oct-13 04:34N 44°39' W 001°09'0 0.0
2014-Oct-13 03:34N 44°39' W 001°09'0 0.0
2014-Oct-13 02:33N 44°39' W 001°09'0 0.0
2014-Oct-13 01:34N 44°39' W 001°09'0 0.0
2014-Oct-13 00:33N 44°39' W 001°09'0 0.0
2014-Oct-12 23:33N 44°39' W 001°09'0 0.0
2014-Oct-12 22:34N 44°39' W 001°09'0 0.0
2014-Oct-12 21:34N 44°39' W 001°09'0 0.0
2014-Oct-12 20:34N 44°39' W 001°09'0 0.0
2014-Oct-12 19:33N 44°39' W 001°09'0 0.0
2014-Oct-12 18:33N 44°39' W 001°09'5 4.9
2014-Oct-12 17:34N 44°37' W 001°14'4 4.0
2014-Oct-12 16:34N 44°38' W 001°20'7 7.2
2014-Oct-12 15:34N 44°45' W 001°23'3 3.5
2014-Oct-12 14:34N 44°48' W 001°24'0 0.3
2014-Oct-12 13:34N 44°48' W 001°24'2 1.9
2014-Oct-12 12:33N 44°46' W 001°24'1 0.8
2014-Oct-12 11:34N 44°47' W 001°24'1 0.6
2014-Oct-12 10:34N 44°48' W 001°25'0 0.3
2014-Oct-12 09:33N 44°48' W 001°25'2 2.4
2014-Oct-12 08:33N 44°50' W 001°25'4 3.8
2014-Oct-12 07:34N 44°47' W 001°28'7 6.5
2014-Oct-12 06:28N 44°42' W 001°36'4 4.7
2014-Oct-12 05:33N 44°40' W 001°40'1 1.0
2014-Oct-12 04:33N 44°39' W 001°41'0 0.3
2014-Oct-12 03:20N 44°39' W 001°41'1 0.7
2014-Oct-12 02:32N 44°38' W 001°41'0 0.5
2014-Oct-12 01:33N 44°38' W 001°42'0 0.0
2014-Oct-12 00:33N 44°38' W 001°42'0 0.0
2014-Oct-11 23:33N 44°38' W 001°42'0 0.0
2014-Oct-11 22:34N 44°38' W 001°42'0 0.0
2014-Oct-11 21:33N 44°38' W 001°42'0 0.0
2014-Oct-11 20:33N 44°38' W 001°42'0 0.0
2014-Oct-11 19:33N 44°38' W 001°42'0 0.0
2014-Oct-11 18:33N 44°38' W 001°42'0 0.0
2014-Oct-11 17:34N 44°38' W 001°42'1 1.1
2014-Oct-11 16:26N 44°38' W 001°43'1 0.7
2014-Oct-11 15:32N 44°39' W 001°43'1 1.4
2014-Oct-11 14:34N 44°39' W 001°41'2 1.0
2014-Oct-11 12:13N 44°39' W 001°45'3 4.1
2014-Oct-11 11:34N 44°38' W 001°41'15 7.2
2014-Oct-11 09:27N 44°48' W 001°25'1 1.4
2014-Oct-11 08:33N 44°50' W 001°25'3 3.2
2014-Oct-11 07:34N 44°48' W 001°28'7 6.8
2014-Oct-11 06:32N 44°48' W 001°38'1 1.0
2014-Oct-11 05:32N 44°48' W 001°37'1 0.6
2014-Oct-11 04:32N 44°48' W 001°36'0 0.0
2014-Oct-10 22:11N 44°48' W 001°36'0 0.1
2014-Oct-10 21:32N 44°48' W 001°36'0 0.0
2014-Oct-10 20:16N 44°48' W 001°36'0 0.1
2014-Oct-10 19:25N 44°48' W 001°36'0 0.2
2014-Oct-10 18:24N 44°48' W 001°36'7 7.1
2014-Oct-10 17:28N 44°48' W 001°27'2 2.3
2014-Oct-10 16:34N 44°50' W 001°25'2 2.4
2014-Oct-10 15:33N 44°47' W 001°25'0 0.4
2014-Oct-10 14:33N 44°47' W 001°24'0 0.3
2014-Oct-10 13:34N 44°48' W 001°24'2 1.5
2014-Oct-10 12:33N 44°46' W 001°25'1 1.1
2014-Oct-10 11:34N 44°45' W 001°24'2 2.4
2014-Oct-10 10:33N 44°48' W 001°24'3 2.6
2014-Oct-10 09:33N 44°45' W 001°24'0 0.2
2014-Oct-10 08:33N 44°45' W 001°24'3 2.6
2014-Oct-10 07:33N 44°48' W 001°24'3 2.7
2014-Oct-10 06:34N 44°45' W 001°24'0 0.1
2014-Oct-10 05:34N 44°45' W 001°25'3 2.6
2014-Oct-10 04:33N 44°48' W 001°24'0 0.2
2014-Oct-10 03:33N 44°48' W 001°25'  

Dump ship's entire track history